Time;durP1;ratioP1;P1;durP2;ratioP2;P2;SDS_P1;SDS_P2;PMS_P1;PMS_P2;Temp;Humidity;BMP_temperature;BMP_pressure;BME280_temperature;BME280_humidity;BME280_pressure;Samples;Min_cycle;Max_cycle;Signal;HPM_P1;HPM_P2
2022/10/17 00:01:04;;;;;;;12.70;2.65;;;12.60;99.90;;;;;;5031506;28;20491;-84
2022/10/17 00:03:30;;;;;;;21.40;3.45;;;12.20;99.90;;;;;;5063442;28;20107;-84
2022/10/17 00:05:56;;;;;;;13.88;3.22;;;12.80;99.90;;;;;;5030749;28;20037;-85
2022/10/17 00:08:22;;;;;;;12.30;2.80;;;12.20;99.90;;;;;;5031327;28;20045;-85
2022/10/17 00:10:59;;;;;;;11.98;3.20;;;12.30;99.90;;;;;;5030631;28;20067;-84
2022/10/17 00:13:25;;;;;;;10.25;2.83;;;12.70;99.90;;;;;;5031279;28;20132;-84
2022/10/17 00:15:51;;;;;;;15.38;4.03;;;12.80;99.90;;;;;;5031247;28;20133;-81
2022/10/17 00:18:17;;;;;;;12.02;2.92;;;12.60;99.90;;;;;;5030313;28;20049;-83
2022/10/17 00:20:43;;;;;;;10.73;3.03;;;12.50;99.90;;;;;;5030821;28;20053;-81
2022/10/17 00:23:08;;;;;;;12.38;3.22;;;12.80;99.90;;;;;;5030738;28;20085;-83
2022/10/17 00:25:34;;;;;;;12.50;3.63;;;12.40;99.90;;;;;;5030363;28;20120;-84
2022/10/17 00:27:59;;;;;;;13.70;3.22;;;12.20;99.90;;;;;;5031257;28;20052;-81
2022/10/17 00:30:25;;;;;;;12.60;3.72;;;12.40;99.90;;;;;;5030557;28;20049;-82
2022/10/17 00:32:51;;;;;;;15.30;4.03;;;12.10;99.90;;;;;;5031302;28;20038;-86
2022/10/17 00:35:16;;;;;;;24.85;4.03;;;12.20;99.90;;;;;;5030873;28;20045;-84
2022/10/17 00:37:42;;;;;;;13.48;3.42;;;12.20;99.90;;;;;;5030572;28;20393;-83
2022/10/17 00:40:09;;;;;;;13.07;3.40;;;12.20;99.90;;;;;;5030672;28;20041;-88
2022/10/17 00:42:34;;;;;;;14.32;3.60;;;12.20;99.90;;;;;;5029446;28;20111;-86
2022/10/17 00:45:30;;;;;;;10.82;3.55;;;12.30;99.90;;;;;;5030398;28;20452;-81
2022/10/17 00:48:07;;;;;;;11.07;4.07;;;12.20;99.90;;;;;;4988658;28;20224;-84
2022/10/17 00:50:35;;;;;;;18.63;3.83;;;12.60;99.90;;;;;;4988557;28;20086;-83
2022/10/17 00:53:03;;;;;;;10.43;3.33;;;12.50;99.90;;;;;;4987353;28;20094;-85
2022/10/17 00:55:33;;;;;;;11.77;3.70;;;12.90;99.90;;;;;;4988298;28;20057;-79
2022/10/17 00:58:02;;;;;;;11.05;3.70;;;12.60;99.90;;;;;;4988351;28;20050;-85
2022/10/17 01:00:29;;;;;;;8.32;3.33;;;12.20;99.90;;;;;;4987851;28;20046;-82
2022/10/17 01:02:54;;;;;;;17.20;3.88;;;12.60;99.90;;;;;;4988012;28;20073;-84
2022/10/17 01:05:21;;;;;;;12.23;3.47;;;12.70;99.90;;;;;;4988379;28;20416;-83
2022/10/17 01:07:49;;;;;;;18.80;4.00;;;12.20;99.90;;;;;;4987829;28;20093;-81
2022/10/17 01:10:15;;;;;;;19.23;3.55;;;12.20;99.90;;;;;;4988131;28;20097;-85
2022/10/17 01:13:18;;;;;;;14.38;3.97;;;12.40;99.90;;;;;;4988060;28;20042;-85
2022/10/17 01:16:03;;;;;;;11.77;3.83;;;12.20;99.90;;;;;;4968789;28;20241;-80
2022/10/17 01:18:38;;;;;;;15.18;3.13;;;12.70;99.90;;;;;;4968708;28;20058;-84
2022/10/17 01:21:33;;;;;;;13.00;3.42;;;12.20;99.90;;;;;;4976292;28;20094;-84
2022/10/17 01:23:58;;;;;;;17.50;4.20;;;12.20;99.90;;;;;;5002053;28;20416;-84
2022/10/17 01:26:30;;;;;;;9.55;2.90;;;12.30;99.90;;;;;;5029962;28;20048;-82
2022/10/17 01:29:23;;;;;;;14.90;3.50;;;12.30;99.90;;;;;;5030117;28;20050;-85
2022/10/17 01:31:58;;;;;;;10.90;3.00;;;12.30;99.90;;;;;;5030021;28;20122;-85
2022/10/17 01:34:42;;;;;;;12.50;3.33;;;12.30;99.90;;;;;;5029433;28;20550;-83
2022/10/17 01:37:26;;;;;;;9.32;3.00;;;12.80;99.90;;;;;;5029776;28;20053;-86
2022/10/17 01:40:12;;;;;;;9.77;2.97;;;12.30;99.90;;;;;;5029477;28;20047;-85
2022/10/17 01:42:56;;;;;;;11.32;3.60;;;12.90;99.90;;;;;;5022311;28;20579;-86
2022/10/17 01:45:31;;;;;;;9.00;3.42;;;12.40;99.90;;;;;;5029268;28;20511;-81
2022/10/17 01:48:03;;;;;;;15.38;3.70;;;12.40;99.90;;;;;;5029930;28;20065;-86
2022/10/17 01:50:36;;;;;;;10.13;3.05;;;12.50;99.90;;;;;;5029825;28;20496;-85
2022/10/17 01:53:17;;;;;;;12.63;2.90;;;12.50;99.90;;;;;;5029568;28;20572;-85
2022/10/17 01:55:45;;;;;;;12.25;3.35;;;12.80;99.90;;;;;;5028343;28;20081;-85
2022/10/17 01:58:16;;;;;;;8.52;3.10;;;12.40;99.90;;;;;;5029465;28;20412;-86
2022/10/17 02:00:44;;;;;;;12.07;3.33;;;12.50;99.90;;;;;;5029004;28;20049;-86
2022/10/17 02:03:15;;;;;;;12.23;3.50;;;12.40;99.90;;;;;;5029346;28;20081;-86
2022/10/17 02:05:42;;;;;;;9.88;3.60;;;12.60;99.90;;;;;;5027861;28;20052;-85
2022/10/17 02:08:08;;;;;;;12.57;3.50;;;12.40;99.90;;;;;;5009821;28;20042;-87
2022/10/17 02:10:52;;;;;;;11.07;3.67;;;12.40;99.90;;;;;;5010848;28;20460;-85
2022/10/17 02:13:35;;;;;;;13.77;3.20;;;12.40;99.90;;;;;;5030098;28;20048;-85
2022/10/17 02:16:30;;;;;;;13.27;3.58;;;12.40;99.90;;;;;;5033399;28;20158;-83
2022/10/17 02:19:04;;;;;;;17.13;4.10;;;12.40;99.90;;;;;;5019982;28;20048;-84
2022/10/17 02:21:50;;;;;;;10.90;3.70;;;12.50;99.90;;;;;;5033370;28;20132;-83
2022/10/17 02:24:37;;;;;;;13.30;3.50;;;12.90;99.90;;;;;;5033060;28;20053;-83
2022/10/17 02:27:33;;;;;;;9.82;3.50;;;12.40;99.90;;;;;;5023278;28;20053;-86
2022/10/17 02:30:09;;;;;;;8.60;3.50;;;12.40;99.90;;;;;;5013710;28;20060;-85
2022/10/17 02:32:58;;;;;;;11.93;3.90;;;12.30;99.90;;;;;;5013061;28;20133;-85
2022/10/17 02:35:29;;;;;;;13.98;3.90;;;12.40;99.90;;;;;;5018392;28;20087;-85
2022/10/17 02:37:57;;;;;;;12.10;4.03;;;12.50;99.90;;;;;;5032642;28;20400;-85
2022/10/17 02:40:23;;;;;;;8.15;3.63;;;12.60;99.90;;;;;;5033066;28;20067;-85
2022/10/17 02:42:51;;;;;;;12.45;4.00;;;12.90;99.90;;;;;;5018264;28;20076;-84
2022/10/17 02:45:17;;;;;;;10.32;3.97;;;12.70;99.90;;;;;;5013984;28;20058;-85
2022/10/17 02:47:43;;;;;;;15.82;4.22;;;12.40;99.90;;;;;;5014168;28;20044;-85
2022/10/17 02:50:09;;;;;;;8.38;3.88;;;12.50;99.90;;;;;;5015250;28;20049;-86
2022/10/17 02:52:54;;;;;;;12.35;3.83;;;12.40;99.90;;;;;;5032731;28;20111;-86
2022/10/17 02:55:28;;;;;;;10.10;3.88;;;12.40;99.90;;;;;;5032649;28;20073;-86
2022/10/17 02:58:03;;;;;;;13.25;4.30;;;12.80;99.90;;;;;;5031100;28;20046;-88
2022/10/17 03:00:30;;;;;;;9.90;4.80;;;12.70;99.90;;;;;;5032485;28;20084;-83
2022/10/17 03:02:55;;;;;;;12.27;4.43;;;12.80;99.90;;;;;;5032553;28;20103;-86
2022/10/17 03:05:26;;;;;;;9.35;4.15;;;12.90;99.90;;;;;;5064310;28;20050;-83
2022/10/17 03:07:52;;;;;;;7.45;3.97;;;12.50;99.90;;;;;;5021822;28;20554;-83
2022/10/17 03:10:18;;;;;;;11.30;4.43;;;12.50;99.90;;;;;;5030860;28;20053;-84
2022/10/17 03:12:44;;;;;;;11.10;5.28;;;13.20;99.90;;;;;;5032022;28;20514;-84
2022/10/17 03:15:10;;;;;;;13.43;4.97;;;12.60;99.90;;;;;;5030380;28;20132;-82
2022/10/17 03:17:36;;;;;;;8.43;4.60;;;12.60;99.90;;;;;;5030941;28;20088;-82
2022/10/17 03:20:02;;;;;;;9.27;4.72;;;12.70;99.90;;;;;;5031790;28;20076;-81
2022/10/17 03:22:28;;;;;;;12.20;4.80;;;12.60;99.90;;;;;;5031482;28;20041;-84
2022/10/17 03:24:54;;;;;;;11.35;5.55;;;12.60;99.90;;;;;;5031975;28;20049;-84
2022/10/17 03:27:19;;;;;;;14.43;5.72;;;13.10;99.90;;;;;;5031488;28;20045;-82
2022/10/17 03:29:45;;;;;;;11.57;5.53;;;13.00;99.90;;;;;;5031410;28;20080;-84
2022/10/17 03:32:10;;;;;;;10.05;5.10;;;12.70;99.90;;;;;;5029795;28;20408;-85
2022/10/17 03:34:36;;;;;;;13.27;5.72;;;13.10;99.90;;;;;;5012077;28;20049;-82
2022/10/17 03:37:02;;;;;;;10.88;6.00;;;12.60;99.90;;;;;;5027856;28;20711;-86
2022/10/17 03:39:27;;;;;;;9.43;6.07;;;12.60;99.90;;;;;;5031650;28;20049;-85
2022/10/17 03:41:53;;;;;;;10.52;5.90;;;12.60;99.90;;;;;;5027568;28;20049;-85
2022/10/17 03:44:19;;;;;;;8.18;5.65;;;12.60;99.90;;;;;;5029451;28;20063;-85
2022/10/17 03:46:44;;;;;;;9.55;5.63;;;12.90;99.90;;;;;;5031400;28;20524;-82
2022/10/17 03:49:10;;;;;;;13.85;6.22;;;13.20;99.90;;;;;;5031548;28;20057;-86
2022/10/17 03:51:36;;;;;;;13.70;6.95;;;12.70;99.90;;;;;;5031621;28;20132;-86
2022/10/17 03:54:02;;;;;;;11.82;7.00;;;13.20;99.90;;;;;;5031720;28;20130;-86
2022/10/17 03:56:27;;;;;;;14.13;6.97;;;12.70;99.90;;;;;;5031049;28;20096;-87
2022/10/17 03:58:54;;;;;;;15.35;6.88;;;13.00;99.90;;;;;;5030234;28;20057;-83
2022/10/17 04:01:21;;;;;;;16.85;7.82;;;13.00;99.90;;;;;;5031242;28;20045;-84
2022/10/17 04:03:51;;;;;;;19.13;8.65;;;12.80;99.90;;;;;;5031593;28;20045;-84
2022/10/17 04:06:17;;;;;;;14.60;7.30;;;12.80;99.90;;;;;;5031220;28;20124;-85
2022/10/17 04:08:43;;;;;;;11.10;8.25;;;13.20;99.90;;;;;;5029945;28;20057;-85
2022/10/17 04:11:12;;;;;;;12.85;8.90;;;13.20;99.90;;;;;;5031449;28;20049;-85
2022/10/17 04:13:38;;;;;;;14.55;8.60;;;13.50;99.90;;;;;;5031084;28;20108;-86
2022/10/17 04:16:07;;;;;;;18.10;9.65;;;13.00;99.90;;;;;;5062486;28;20156;-85
2022/10/17 04:18:33;;;;;;;14.00;8.27;;;12.90;99.90;;;;;;5030874;28;20030;-86
2022/10/17 04:21:08;;;;;;;12.23;8.60;;;13.10;99.90;;;;;;5030750;28;20149;-85
2022/10/17 04:23:34;;;;;;;10.98;8.15;;;13.00;99.90;;;;;;5029593;28;20045;-83
2022/10/17 04:26:02;;;;;;;14.10;8.93;;;13.00;99.90;;;;;;5030361;28;20057;-82
2022/10/17 04:28:28;;;;;;;14.90;9.57;;;13.50;99.90;;;;;;5030912;28;20116;-85
2022/10/17 04:31:10;;;;;;;14.57;9.45;;;13.50;99.90;;;;;;5029437;28;20053;-84
2022/10/17 04:33:36;;;;;;;19.42;10.70;;;13.10;99.90;;;;;;5029110;28;20045;-81
2022/10/17 04:36:05;;;;;;;16.95;11.20;;;13.50;99.90;;;;;;5030402;28;20374;-82
2022/10/17 04:38:31;;;;;;;12.98;10.52;;;13.20;99.90;;;;;;5030533;28;20046;-84
2022/10/17 04:41:30;;;;;;;14.30;10.60;;;13.30;99.90;;;;;;5030599;28;20050;-85
2022/10/17 04:43:55;;;;;;;17.33;11.57;;;13.20;99.90;;;;;;5028866;28;20061;-82
2022/10/17 04:46:21;;;;;;;15.95;11.95;;;13.50;99.90;;;;;;5030350;28;20056;-83
2022/10/17 04:48:47;;;;;;;12.35;10.50;;;13.80;99.90;;;;;;5045039;28;20064;-84
2022/10/17 04:51:15;;;;;;;16.90;11.95;;;13.70;99.90;;;;;;5030742;28;20083;-85
2022/10/17 04:53:42;;;;;;;21.27;11.80;;;14.00;99.90;;;;;;5030949;28;20042;-83
2022/10/17 04:56:16;;;;;;;16.40;11.70;;;13.70;99.90;;;;;;5030459;28;20049;-83
2022/10/17 04:58:43;;;;;;;16.88;12.63;;;13.40;99.90;;;;;;5029828;28;20041;-85
2022/10/17 05:01:14;;;;;;;19.00;12.38;;;13.60;99.90;;;;;;5029095;28;20061;-86
2022/10/17 05:03:40;;;;;;;15.07;11.93;;;13.50;99.90;;;;;;5029575;28;20507;-87
2022/10/17 05:06:07;;;;;;;15.65;12.23;;;13.90;99.90;;;;;;5029421;28;20045;-84
2022/10/17 05:08:34;;;;;;;16.60;11.98;;;14.10;99.90;;;;;;5029753;28;20045;-82
2022/10/17 05:10:59;;;;;;;16.70;12.52;;;13.90;99.90;;;;;;5030015;28;20061;-84
2022/10/17 05:13:25;;;;;;;16.98;12.55;;;14.10;99.90;;;;;;5018886;28;20038;-86
2022/10/17 05:15:50;;;;;;;18.58;12.85;;;13.70;99.90;;;;;;5023514;28;20045;-86
2022/10/17 05:18:16;;;;;;;20.98;13.00;;;14.10;99.90;;;;;;5028288;28;20133;-85
2022/10/17 05:20:42;;;;;;;21.95;14.10;;;13.80;99.90;;;;;;5029858;28;20073;-84
2022/10/17 05:23:07;;;;;;;20.48;13.32;;;13.80;99.90;;;;;;5030088;28;20395;-85
2022/10/17 05:25:33;;;;;;;18.63;14.32;;;13.90;99.90;;;;;;5029872;28;20048;-84
2022/10/17 05:27:58;;;;;;;17.85;13.73;;;13.90;99.90;;;;;;5029723;28;20057;-81
2022/10/17 05:30:24;;;;;;;19.27;12.80;;;14.40;99.90;;;;;;5029465;28;20047;-84
2022/10/17 05:32:53;;;;;;;18.67;12.77;;;14.20;99.90;;;;;;5029927;28;20042;-85
2022/10/17 05:35:20;;;;;;;19.92;12.65;;;14.20;99.90;;;;;;5029443;28;20485;-83
2022/10/17 05:37:46;;;;;;;16.98;12.85;;;14.20;99.90;;;;;;5029670;28;20503;-83
2022/10/17 05:40:11;;;;;;;16.30;12.43;;;14.00;99.90;;;;;;5029502;28;20041;-85
2022/10/17 05:42:37;;;;;;;18.08;12.57;;;14.00;99.90;;;;;;5029252;28;20033;-84
2022/10/17 05:45:04;;;;;;;19.15;12.45;;;14.00;99.90;;;;;;5026097;28;20061;-85
2022/10/17 05:47:30;;;;;;;18.40;12.35;;;14.00;99.90;;;;;;5034042;28;20045;-85
2022/10/17 05:49:56;;;;;;;28.30;14.02;;;14.00;99.90;;;;;;5033116;28;20045;-83
2022/10/17 05:52:21;;;;;;;16.75;13.70;;;14.10;99.90;;;;;;5032579;28;20124;-84
2022/10/17 05:54:47;;;;;;;17.58;13.43;;;14.00;99.90;;;;;;5033541;28;20042;-82
2022/10/17 05:57:12;;;;;;;17.92;12.75;;;14.20;99.90;;;;;;5033875;28;20045;-83
2022/10/17 05:59:38;;;;;;;19.58;12.73;;;14.40;99.90;;;;;;5033555;28;20076;-85
2022/10/17 06:02:04;;;;;;;23.38;12.73;;;14.00;99.90;;;;;;5031694;28;20148;-82
2022/10/17 06:04:29;;;;;;;19.92;13.05;;;14.00;99.90;;;;;;5033783;28;20046;-85
2022/10/17 06:06:55;;;;;;;17.13;12.63;;;14.00;99.90;;;;;;5033792;28;20126;-84
2022/10/17 06:09:21;;;;;;;16.52;12.80;;;14.50;99.90;;;;;;5032287;28;20484;-86
2022/10/17 06:11:47;;;;;;;15.52;12.82;;;14.10;99.90;;;;;;5033411;28;20037;-86
2022/10/17 06:14:13;;;;;;;30.60;14.05;;;14.10;99.90;;;;;;5032079;28;20485;-83
2022/10/17 06:16:38;;;;;;;26.48;13.57;;;14.50;99.90;;;;;;5032076;28;20041;-85
2022/10/17 06:19:07;;;;;;;18.67;13.07;;;14.10;99.90;;;;;;5034012;28;20420;-85
2022/10/17 06:21:35;;;;;;;18.77;12.43;;;14.40;99.90;;;;;;5033459;28;20049;-88
2022/10/17 06:24:01;;;;;;;18.80;13.32;;;14.20;99.90;;;;;;5033424;28;20621;-84
2022/10/17 06:26:26;;;;;;;24.02;12.90;;;14.30;99.90;;;;;;5031684;28;20061;-82
2022/10/17 06:28:53;;;;;;;15.25;11.45;;;14.10;99.90;;;;;;5033384;28;20064;-86
2022/10/17 06:31:19;;;;;;;18.85;12.55;;;14.10;99.90;;;;;;5031784;28;20064;-86
2022/10/17 06:33:45;;;;;;;17.83;11.98;;;14.20;99.90;;;;;;5032169;28;20059;-87
2022/10/17 06:36:13;;;;;;;18.38;11.93;;;14.40;99.90;;;;;;5031665;28;20511;-85
2022/10/17 06:38:39;;;;;;;16.15;11.82;;;14.20;99.90;;;;;;5032970;28;20095;-85
2022/10/17 06:41:12;;;;;;;15.60;11.88;;;14.20;99.90;;;;;;5033198;28;20049;-85
2022/10/17 06:43:39;;;;;;;18.73;11.82;;;14.40;99.90;;;;;;5032385;28;20053;-87
2022/10/17 06:46:13;;;;;;;18.52;12.43;;;14.20;99.90;;;;;;5033238;28;20061;-86
2022/10/17 06:48:38;;;;;;;15.43;11.52;;;14.20;99.90;;;;;;5033067;28;20045;-85
2022/10/17 06:51:05;;;;;;;19.83;12.40;;;14.70;99.90;;;;;;5031409;28;20080;-83
2022/10/17 06:53:33;;;;;;;19.50;11.55;;;14.30;99.90;;;;;;5032566;28;20056;-86
2022/10/17 06:56:03;;;;;;;24.50;11.50;;;14.30;99.90;;;;;;5032458;28;20053;-83
2022/10/17 06:58:31;;;;;;;16.08;11.80;;;14.40;99.90;;;;;;5030174;28;20049;-81
2022/10/17 07:01:02;;;;;;;14.93;10.70;;;14.60;99.90;;;;;;5032770;28;20053;-83
2022/10/17 07:03:32;;;;;;;16.15;11.57;;;14.40;99.90;;;;;;5033127;28;20053;-83
2022/10/17 07:05:58;;;;;;;15.95;11.48;;;14.50;99.90;;;;;;5031236;28;20076;-81
2022/10/17 07:08:26;;;;;;;14.40;11.43;;;14.80;99.90;;;;;;5031226;28;20566;-83
2022/10/17 07:10:52;;;;;;;15.52;9.95;;;14.60;99.90;;;;;;5045307;28;20053;-82
2022/10/17 07:13:18;;;;;;;15.05;10.05;;;14.60;99.90;;;;;;5032427;28;20049;-84
2022/10/17 07:15:45;;;;;;;12.85;10.13;;;14.60;99.90;;;;;;5031869;28;20041;-84
2022/10/17 07:18:10;;;;;;;17.35;10.00;;;14.80;99.90;;;;;;5032280;28;20045;-82
2022/10/17 07:20:36;;;;;;;13.20;10.00;;;15.40;99.90;;;;;;5032423;28;20041;-80
2022/10/17 07:23:03;;;;;;;17.73;10.25;;;14.90;99.90;;;;;;5032332;28;20048;-82
2022/10/17 07:25:29;;;;;;;15.68;9.27;;;15.00;99.90;;;;;;5030580;28;20060;-80
2022/10/17 07:27:55;;;;;;;15.45;10.32;;;15.10;99.90;;;;;;5030552;28;20054;-83
2022/10/17 07:30:21;;;;;;;15.85;9.07;;;15.20;99.90;;;;;;5031481;28;20049;-83
2022/10/17 07:32:47;;;;;;;15.05;10.02;;;15.20;99.90;;;;;;5031076;28;20052;-82
2022/10/17 07:35:13;;;;;;;15.23;9.43;;;15.60;99.90;;;;;;5032022;28;20038;-79
2022/10/17 07:37:39;;;;;;;14.07;9.35;;;15.40;99.90;;;;;;5031609;28;20507;-81
2022/10/17 07:40:07;;;;;;;15.00;10.45;;;15.40;99.90;;;;;;5030066;28;20056;-80
2022/10/17 07:42:35;;;;;;;15.77;9.95;;;15.50;99.90;;;;;;5030271;28;20041;-81
2022/10/17 07:45:01;;;;;;;13.73;9.57;;;15.50;99.90;;;;;;5030077;28;20072;-83
2022/10/17 07:47:29;;;;;;;17.25;8.93;;;15.60;99.90;;;;;;5031957;28;20045;-83
2022/10/17 07:49:55;;;;;;;14.75;9.48;;;15.60;99.90;;;;;;5031340;28;20045;-83
2022/10/17 07:52:21;;;;;;;15.48;8.80;;;15.70;99.90;;;;;;5031810;28;20049;-81
2022/10/17 07:54:47;;;;;;;16.27;9.90;;;15.70;99.90;;;;;;5030886;28;20030;-79
2022/10/17 07:57:12;;;;;;;15.32;9.35;;;15.80;99.90;;;;;;5028693;28;20049;-80
2022/10/17 07:59:38;;;;;;;16.10;8.93;;;15.90;99.90;;;;;;5028591;28;20033;-77
2022/10/17 08:02:06;;;;;;;12.73;9.02;;;16.00;99.90;;;;;;5029719;28;20141;-78
2022/10/17 08:04:33;;;;;;;15.88;8.45;;;16.10;99.90;;;;;;5030070;28;20044;-80
2022/10/17 08:06:59;;;;;;;16.80;9.10;;;16.20;99.90;;;;;;5031359;28;20055;-83
2022/10/17 08:09:24;;;;;;;14.10;9.48;;;16.30;99.90;;;;;;5029642;28;20049;-81
2022/10/17 08:11:50;;;;;;;15.35;9.40;;;16.80;99.90;;;;;;5030934;28;20102;-82
2022/10/17 08:14:16;;;;;;;15.10;9.55;;;16.40;99.90;;;;;;5031456;28;20049;-80
2022/10/17 08:16:42;;;;;;;14.90;9.50;;;16.40;99.90;;;;;;5030734;28;20033;-80
2022/10/17 08:19:10;;;;;;;17.48;9.70;;;16.40;99.90;;;;;;5031031;28;20048;-84
2022/10/17 08:21:36;;;;;;;13.95;9.18;;;16.50;99.90;;;;;;5031332;28;20057;-82
2022/10/17 08:24:02;;;;;;;12.98;8.77;;;16.50;99.90;;;;;;5029236;28;20088;-79
2022/10/17 08:26:28;;;;;;;15.80;8.55;;;16.50;99.90;;;;;;5031159;28;20096;-83
2022/10/17 08:28:54;;;;;;;17.00;8.85;;;16.50;99.90;;;;;;5011458;28;20485;-84
2022/10/17 08:31:20;;;;;;;13.65;8.15;;;16.80;99.90;;;;;;5020029;28;20081;-80
2022/10/17 08:33:47;;;;;;;16.00;8.50;;;16.60;99.90;;;;;;5029402;28;20034;-81
2022/10/17 08:36:15;;;;;;;13.48;8.57;;;17.20;99.90;;;;;;5062602;28;20049;-84
2022/10/17 08:38:42;;;;;;;12.13;7.38;;;16.70;99.90;;;;;;5030644;28;20116;-81
2022/10/17 08:41:46;;;;;;;11.85;7.93;;;16.80;99.90;;;;;;5030562;28;20045;-83
2022/10/17 08:44:30;;;;;;;17.73;7.68;;;16.80;99.90;;;;;;4988190;28;20058;-83
2022/10/17 08:46:58;;;;;;;12.77;7.75;;;16.90;99.90;;;;;;4988714;28;20093;-81
2022/10/17 08:49:40;;;;;;;10.27;7.60;;;16.90;99.90;;;;;;4988139;28;20054;-83
2022/10/17 08:52:22;;;;;;;11.95;7.63;;;17.10;99.90;;;;;;4988746;28;20604;-83
2022/10/17 08:54:49;;;;;;;12.55;8.07;;;17.00;99.90;;;;;;4989544;28;20553;-83
2022/10/17 08:57:16;;;;;;;10.70;6.97;;;17.10;99.90;;;;;;4988549;28;20054;-82
2022/10/17 08:59:44;;;;;;;10.82;7.28;;;17.10;99.90;;;;;;4987653;28;20054;-79
2022/10/17 09:02:36;;;;;;;14.30;7.40;;;17.10;99.90;;;;;;4988566;28;20105;-83
2022/10/17 09:05:27;;;;;;;18.27;7.70;;;17.20;99.90;;;;;;4892619;29;20515;-81
2022/10/17 09:08:22;;;;;;;12.95;7.78;;;17.20;99.90;;;;;;4892556;29;20071;-82
2022/10/17 09:11:17;;;;;;;14.68;7.10;;;17.20;99.90;;;;;;4892321;29;20783;-81
2022/10/17 09:14:06;;;;;;;;;;;17.20;99.90;;;;;;4893662;29;20148;-82
2022/10/17 09:17:26;;;;;;;11.38;7.00;;;17.30;99.90;;;;;;4885412;29;19927;-79
2022/10/17 09:20:24;;;;;;;14.45;7.50;;;17.20;99.90;;;;;;4913304;29;20055;-84
2022/10/17 09:23:02;;;;;;;11.32;7.72;;;17.20;99.90;;;;;;4926031;29;20127;-83
2022/10/17 09:25:30;;;;;;;14.57;7.65;;;17.20;99.90;;;;;;4914443;29;20060;-80
2022/10/17 09:28:16;;;;;;;9.60;7.68;;;17.20;99.90;;;;;;4930181;29;20055;-78
2022/10/17 09:31:01;;;;;;;12.52;7.38;;;17.20;99.90;;;;;;4929848;28;20063;-80
2022/10/17 09:33:49;;;;;;;12.40;7.72;;;17.20;99.90;;;;;;4930422;28;20066;-82
2022/10/17 09:36:26;;;;;;;10.02;7.20;;;17.30;99.90;;;;;;4930561;29;20063;-81
2022/10/17 09:38:55;;;;;;;14.75;7.95;;;17.30;99.90;;;;;;4930048;29;20047;-81
2022/10/17 09:41:25;;;;;;;12.60;7.50;;;17.30;99.90;;;;;;4933604;29;20051;-84
2022/10/17 09:43:56;;;;;;;13.68;8.32;;;17.20;99.90;;;;;;4949297;29;20070;-80
2022/10/17 09:46:24;;;;;;;14.15;8.07;;;17.10;99.90;;;;;;4948822;29;20061;-79
2022/10/17 09:48:59;;;;;;;13.43;7.55;;;17.10;99.90;;;;;;4948675;29;20510;-83
2022/10/17 09:51:25;;;;;;;13.10;8.35;;;17.10;99.90;;;;;;4949206;28;20078;-82
2022/10/17 09:53:56;;;;;;;14.93;8.77;;;17.10;99.90;;;;;;4948412;28;20124;-83
2022/10/17 09:56:21;;;;;;;11.82;8.32;;;17.00;99.90;;;;;;5018076;28;20065;-81
2022/10/17 09:58:54;;;;;;;17.67;8.45;;;17.00;99.90;;;;;;5036435;28;20095;-79
2022/10/17 10:01:27;;;;;;;13.40;8.25;;;17.20;99.90;;;;;;5028860;28;20136;-82
2022/10/17 10:04:14;;;;;;;15.70;9.05;;;16.90;99.90;;;;;;5029860;28;20045;-85
2022/10/17 10:06:59;;;;;;;13.10;8.55;;;16.90;99.90;;;;;;5042197;28;20061;-84
2022/10/17 10:09:28;;;;;;;16.17;9.63;;;17.10;99.90;;;;;;5014975;28;20057;-76
2022/10/17 10:11:55;;;;;;;13.82;8.32;;;16.80;99.90;;;;;;5029474;28;20562;-92
2022/10/17 10:14:29;;;;;;;16.13;8.90;;;16.80;99.90;;;;;;5030349;28;20095;-79
2022/10/17 10:16:54;;;;;;;11.63;8.75;;;16.80;99.90;;;;;;5029994;28;20097;-84
2022/10/17 10:19:35;;;;;;;12.23;8.63;;;16.80;99.90;;;;;;5019321;28;20138;-86
2022/10/17 10:22:18;;;;;;;13.25;9.43;;;17.00;99.90;;;;;;5061324;28;20405;-83
2022/10/17 10:24:44;;;;;;;11.68;8.55;;;16.70;99.90;;;;;;5029308;28;20049;-78
2022/10/17 10:27:16;;;;;;;10.68;8.95;;;16.70;99.90;;;;;;5029628;28;20033;-82
2022/10/17 10:29:51;;;;;;;19.98;8.57;;;16.80;99.90;;;;;;5029216;28;20050;-80
2022/10/17 10:32:22;;;;;;;13.93;9.35;;;16.70;99.90;;;;;;5031689;28;20051;-81
2022/10/17 10:34:57;;;;;;;12.43;8.65;;;16.80;99.90;;;;;;5033096;28;20535;-84
2022/10/17 10:37:25;;;;;;;12.80;8.50;;;16.70;99.90;;;;;;5034268;28;20038;-85
2022/10/17 10:39:56;;;;;;;12.95;8.30;;;16.70;99.90;;;;;;5034616;28;20144;-89
2022/10/17 10:42:27;;;;;;;15.35;9.07;;;16.70;99.90;;;;;;5033008;28;20522;-92
2022/10/17 10:44:56;;;;;;;14.90;8.45;;;16.70;99.90;;;;;;5032675;28;20064;-91
2022/10/17 10:47:28;;;;;;;12.82;8.88;;;16.70;99.90;;;;;;5034469;28;20076;-91
2022/10/17 10:50:28;;;;;;;13.32;8.13;;;16.70;99.90;;;;;;5032560;28;20049;-85
2022/10/17 10:53:19;;;;;;;12.77;8.63;;;16.70;99.90;;;;;;5015788;28;20042;-86
2022/10/17 10:56:13;;;;;;;10.30;8.07;;;16.70;99.90;;;;;;5032211;28;20041;-83
2022/10/17 10:59:00;;;;;;;18.40;9.52;;;16.80;99.90;;;;;;5032958;28;20124;-86
2022/10/17 11:02:04;;;;;;;12.38;8.20;;;16.80;99.90;;;;;;5032696;28;20049;-83
2022/10/17 11:04:40;;;;;;;14.02;8.80;;;16.80;99.90;;;;;;5033193;28;20045;-86
2022/10/17 11:07:35;;;;;;;12.07;8.75;;;16.80;99.90;;;;;;5032326;28;20176;-86
2022/10/17 11:10:17;;;;;;;14.23;8.45;;;16.80;99.90;;;;;;5022243;28;20092;-87
2022/10/17 11:12:56;;;;;;;14.55;8.88;;;16.80;99.90;;;;;;5033651;28;20045;-87
2022/10/17 11:15:34;;;;;;;11.80;8.85;;;16.90;99.90;;;;;;5033462;28;20412;-84
2022/10/17 11:18:03;;;;;;;15.10;9.05;;;16.80;99.90;;;;;;5033481;28;20049;-84
2022/10/17 11:20:34;;;;;;;13.93;9.50;;;16.90;99.90;;;;;;5032720;28;20037;-85
2022/10/17 11:23:09;;;;;;;17.75;9.20;;;16.90;99.90;;;;;;5033908;28;20080;-90
2022/10/17 11:25:39;;;;;;;14.65;9.48;;;16.90;99.90;;;;;;5033196;28;20073;-90
2022/10/17 11:28:24;;;;;;;13.27;9.07;;;16.90;99.90;;;;;;5034000;28;20043;-86
2022/10/17 11:30:59;;;;;;;13.07;8.93;;;16.90;99.90;;;;;;5034574;28;20489;-88
2022/10/17 11:33:43;;;;;;;12.50;9.07;;;16.90;99.90;;;;;;5034814;28;20048;-81
2022/10/17 11:36:09;;;;;;;15.25;9.40;;;16.80;99.90;;;;;;5033626;28;20049;-88
2022/10/17 11:38:47;;;;;;;12.70;8.57;;;16.80;99.90;;;;;;5033501;28;20416;-84
2022/10/17 11:41:25;;;;;;;15.05;10.10;;;16.90;99.90;;;;;;5030866;28;20092;-83
2022/10/17 11:43:55;;;;;;;13.23;9.57;;;17.10;99.90;;;;;;5032261;28;20045;-86
2022/10/17 11:46:24;;;;;;;15.95;9.38;;;17.20;99.90;;;;;;5063407;28;20050;-85
2022/10/17 11:49:01;;;;;;;12.90;9.10;;;16.80;99.90;;;;;;5030966;28;20488;-84
2022/10/17 11:51:30;;;;;;;11.45;7.03;;;16.80;99.90;;;;;;5031801;28;20055;-84
2022/10/17 11:54:05;;;;;;;11.32;7.20;;;16.80;99.90;;;;;;5032589;28;20042;-91
2022/10/17 11:56:45;;;;;;;11.25;7.03;;;16.80;99.90;;;;;;5033033;28;20049;-90
2022/10/17 11:59:31;;;;;;;9.65;6.38;;;16.80;99.90;;;;;;5032419;28;20038;-83
2022/10/17 12:02:11;;;;;;;10.05;5.18;;;16.70;99.90;;;;;;5031860;28;20052;-83
2022/10/17 12:04:53;;;;;;;11.35;5.70;;;16.70;99.90;;;;;;5031831;28;20124;-82
2022/10/17 12:07:44;;;;;;;8.95;5.90;;;16.60;99.90;;;;;;5031641;28;20133;-84
2022/10/17 12:10:23;;;;;;;11.10;7.65;;;16.70;99.90;;;;;;5031284;28;20499;-83
2022/10/17 12:12:49;;;;;;;11.52;7.90;;;16.70;99.90;;;;;;5032175;28;20041;-83
2022/10/17 12:15:24;;;;;;;13.40;8.15;;;16.80;99.90;;;;;;5031967;28;20436;-89
2022/10/17 12:17:56;;;;;;;;;;;16.80;99.90;;;;;;5032402;28;20049;-86
2022/10/17 12:20:24;;;;;;;9.55;7.00;;;16.90;99.90;;;;;;5031370;28;20279;-81
2022/10/17 12:22:59;;;;;;;11.13;6.40;;;16.90;99.90;;;;;;5030262;28;20048;-80
2022/10/17 12:25:33;;;;;;;10.07;5.90;;;16.90;99.90;;;;;;5029371;28;20041;-79
2022/10/17 12:28:13;;;;;;;7.25;5.18;;;17.00;99.90;;;;;;5030861;28;20060;-83
2022/10/17 12:31:11;;;;;;;13.25;5.18;;;16.90;99.90;;;;;;5031032;28;20041;-82
2022/10/17 12:34:01;;;;;;;7.85;5.63;;;16.90;99.90;;;;;;5031733;28;20203;-88
2022/10/17 12:36:27;;;;;;;10.18;5.80;;;16.90;99.90;;;;;;5045671;28;20053;-90
2022/10/17 12:39:01;;;;;;;10.95;5.53;;;17.10;99.90;;;;;;5028190;28;20164;-89
2022/10/17 12:41:39;;;;;;;12.82;5.55;;;16.90;99.90;;;;;;5045466;28;20084;-87
2022/10/17 12:44:14;;;;;;;7.95;4.88;;;16.90;99.90;;;;;;5029165;28;20053;-90
2022/10/17 12:47:18;;;;;;;13.73;5.00;;;16.90;99.90;;;;;;5044432;28;20095;-83
2022/10/17 12:49:49;;;;;;;7.63;4.43;;;16.80;99.90;;;;;;5027453;28;20045;-82
2022/10/17 12:52:31;;;;;;;8.65;4.15;;;16.80;99.90;;;;;;5028073;28;20084;-79
2022/10/17 12:54:59;;;;;;;9.35;4.05;;;16.80;99.90;;;;;;5026729;28;20041;-84
2022/10/17 12:57:48;;;;;;;7.80;3.67;;;17.10;99.90;;;;;;5027761;28;20481;-83
2022/10/17 13:00:26;;;;;;;7.22;3.88;;;16.70;99.90;;;;;;5027607;28;20080;-79